Time;durP1;ratioP1;P1;durP2;ratioP2;P2;SDS_P1;SDS_P2;PMS_P1;PMS_P2;Temp;Humidity;BMP_temperature;BMP_pressure;BME280_temperature;BME280_humidity;BME280_pressure;Samples;Min_cycle;Max_cycle;Signal;HPM_P1;HPM_P2
2022/01/05 00:02:06;;;;;;;2.13;0.32;;;26.90;99.90;;;;;;4972393;28;20121;-75
2022/01/05 00:04:35;;;;;;;3.42;0.80;;;27.00;99.90;;;;;;4971328;28;20034;-74
2022/01/05 00:07:04;;;;;;;3.10;0.40;;;27.30;99.90;;;;;;4967482;28;20335;-75
2022/01/05 00:09:31;;;;;;;0.65;0.30;;;27.70;99.90;;;;;;4968639;28;20122;-74
2022/01/05 00:11:58;;;;;;;2.08;0.30;;;27.90;99.90;;;;;;4967489;28;20127;-76
2022/01/05 00:14:26;;;;;;;1.65;0.45;;;27.90;99.90;;;;;;4968789;28;20114;-74
2022/01/05 00:16:53;;;;;;;2.53;0.93;;;27.90;99.90;;;;;;4985158;28;20083;-75
2022/01/05 00:19:20;;;;;;;3.63;0.50;;;27.90;99.90;;;;;;4968364;28;20085;-75
2022/01/05 00:21:48;;;;;;;1.98;0.40;;;27.90;99.90;;;;;;4968970;28;20126;-76
2022/01/05 00:24:15;;;;;;;2.97;0.63;;;27.90;99.90;;;;;;4969663;28;20122;-75
2022/01/05 00:26:42;;;;;;;1.70;0.38;;;27.60;99.90;;;;;;4973820;28;20018;-76
2022/01/05 00:29:10;;;;;;;1.75;0.40;;;27.40;99.90;;;;;;4965953;28;20038;-76
2022/01/05 00:31:38;;;;;;;0.63;0.30;;;27.20;99.90;;;;;;4965025;28;20387;-76
2022/01/05 00:34:05;;;;;;;3.22;0.65;;;26.90;99.90;;;;;;4967706;28;20027;-74
2022/01/05 00:36:32;;;;;;;2.17;0.75;;;26.70;99.90;;;;;;4965658;28;20525;-75
2022/01/05 00:39:00;;;;;;;2.25;0.38;;;26.60;99.90;;;;;;4968009;28;20026;-75
2022/01/05 00:41:27;;;;;;;2.28;0.32;;;26.70;99.90;;;;;;4971547;28;20481;-75
2022/01/05 00:43:54;;;;;;;4.68;0.55;;;27.00;99.90;;;;;;4966979;28;20050;-75
2022/01/05 00:46:22;;;;;;;4.80;0.55;;;27.40;99.90;;;;;;4977938;28;20334;-75
2022/01/05 00:48:49;;;;;;;5.72;0.40;;;28.00;99.90;;;;;;4970311;28;20031;-74
2022/01/05 00:51:17;;;;;;;2.17;0.70;;;28.90;99.90;;;;;;4967444;28;20030;-75
2022/01/05 00:53:44;;;;;;;2.20;0.52;;;29.30;99.90;;;;;;4968470;28;20041;-75
2022/01/05 00:56:11;;;;;;;1.45;0.50;;;29.20;99.90;;;;;;4960288;28;20049;-75
2022/01/05 00:58:39;;;;;;;1.67;0.55;;;29.00;99.90;;;;;;4969265;28;20049;-75
2022/01/05 01:01:06;;;;;;;5.38;0.50;;;28.70;99.90;;;;;;4966679;28;20454;-74
2022/01/05 01:03:34;;;;;;;1.80;0.47;;;28.50;99.90;;;;;;4962762;28;20537;-75
2022/01/05 01:06:01;;;;;;;3.53;0.30;;;28.60;99.90;;;;;;4963521;28;20026;-75
2022/01/05 01:08:29;;;;;;;1.48;0.43;;;28.80;99.90;;;;;;4959973;28;20560;-74
2022/01/05 01:10:56;;;;;;;4.32;0.63;;;28.90;99.90;;;;;;4957986;28;20096;-74
2022/01/05 01:13:24;;;;;;;1.02;0.47;;;28.60;99.90;;;;;;4960778;28;20023;-74
2022/01/05 01:15:52;;;;;;;2.95;0.40;;;28.50;99.90;;;;;;4970829;28;20069;-73
2022/01/05 01:18:20;;;;;;;1.13;0.45;;;28.30;99.90;;;;;;4959366;28;20394;-74
2022/01/05 01:20:49;;;;;;;0.82;0.35;;;28.20;99.90;;;;;;4964418;28;20042;-75
2022/01/05 01:23:22;;;;;;;2.67;0.50;;;28.00;99.90;;;;;;4968606;28;20168;-74
2022/01/05 01:25:53;;;;;;;5.70;0.55;;;28.00;99.90;;;;;;4969298;28;20034;-75
2022/01/05 01:28:21;;;;;;;1.23;0.30;;;27.80;99.90;;;;;;4969257;28;20038;-74
2022/01/05 01:30:50;;;;;;;3.58;0.50;;;27.60;99.90;;;;;;4969173;28;20424;-75
2022/01/05 01:33:18;;;;;;;4.53;1.45;;;26.70;99.90;;;;;;4966355;28;20065;-72
2022/01/05 01:35:45;;;;;;;3.75;0.98;;;25.70;99.90;;;;;;4969474;28;20031;-72
2022/01/05 01:38:13;;;;;;;3.05;0.40;;;24.80;99.90;;;;;;4964258;28;20027;-72
2022/01/05 01:40:40;;;;;;;4.88;1.40;;;24.50;99.90;;;;;;4960480;28;20023;-73
2022/01/05 01:43:08;;;;;;;3.10;0.60;;;24.20;99.90;;;;;;4961758;28;20042;-72
2022/01/05 01:45:35;;;;;;;1.23;0.47;;;24.00;99.90;;;;;;4961885;28;20027;-72
2022/01/05 01:48:03;;;;;;;4.28;0.98;;;23.90;99.90;;;;;;4962846;28;20378;-72
2022/01/05 01:50:31;;;;;;;1.83;0.40;;;24.00;99.90;;;;;;4962805;28;20105;-72
2022/01/05 01:52:59;;;;;;;2.78;0.32;;;24.00;99.90;;;;;;4970505;28;20479;-73
2022/01/05 01:55:27;;;;;;;3.45;0.60;;;24.20;99.90;;;;;;4977576;28;20063;-73
2022/01/05 01:57:55;;;;;;;1.30;0.30;;;24.40;99.90;;;;;;4962559;28;21537;-73
2022/01/05 02:00:22;;;;;;;3.83;0.88;;;24.50;99.90;;;;;;4978753;28;20035;-73
2022/01/05 02:02:50;;;;;;;1.50;0.50;;;24.70;99.90;;;;;;4966476;28;20181;-72
2022/01/05 02:05:17;;;;;;;3.08;0.75;;;25.00;99.90;;;;;;4961517;28;20037;-73
2022/01/05 02:07:45;;;;;;;4.95;2.03;;;25.20;99.90;;;;;;4967775;28;20486;-73
2022/01/05 02:10:12;;;;;;;6.15;1.58;;;25.30;99.90;;;;;;4966441;28;20110;-72
2022/01/05 02:12:40;;;;;;;3.97;0.70;;;25.50;99.90;;;;;;4961793;28;20018;-72
2022/01/05 02:15:08;;;;;;;2.38;0.50;;;25.70;99.90;;;;;;4964996;28;20350;-72
2022/01/05 02:17:49;;;;;;;3.75;0.60;;;25.80;99.90;;;;;;4959690;28;20031;-72
2022/01/05 02:20:19;;;;;;;2.03;0.30;;;26.00;99.90;;;;;;4967616;28;20035;-72
2022/01/05 02:22:47;;;;;;;3.25;0.28;;;26.10;99.90;;;;;;4962944;28;20047;-73
2022/01/05 02:25:15;;;;;;;4.70;0.30;;;26.30;99.90;;;;;;4962808;28;20041;-73
2022/01/05 02:27:44;;;;;;;2.60;0.28;;;26.30;99.90;;;;;;4965270;28;20046;-74
2022/01/05 02:30:18;;;;;;;2.33;0.47;;;26.30;99.90;;;;;;4966287;28;20073;-74
2022/01/05 02:32:45;;;;;;;1.33;0.28;;;26.20;99.90;;;;;;4966312;28;20027;-75
2022/01/05 02:35:13;;;;;;;4.32;1.33;;;26.20;99.90;;;;;;4963873;28;20104;-73
2022/01/05 02:37:42;;;;;;;4.15;1.20;;;26.30;99.90;;;;;;4963509;28;20050;-74
2022/01/05 02:40:15;;;;;;;2.72;0.50;;;26.20;99.90;;;;;;4961568;28;20133;-74
2022/01/05 02:42:43;;;;;;;2.40;1.38;;;26.10;99.90;;;;;;4963173;28;20035;-74
2022/01/05 02:45:13;;;;;;;3.90;0.85;;;26.00;99.90;;;;;;4967409;28;20018;-75
2022/01/05 02:47:40;;;;;;;4.07;0.73;;;25.90;99.90;;;;;;4978043;28;20023;-76
2022/01/05 02:50:10;;;;;;;2.22;0.63;;;25.90;99.90;;;;;;4971368;28;20035;-74
2022/01/05 02:52:38;;;;;;;2.90;0.95;;;25.50;99.90;;;;;;4966409;28;20030;-74
2022/01/05 02:55:06;;;;;;;5.32;0.57;;;25.20;99.90;;;;;;4971836;28;20034;-74
2022/01/05 02:57:34;;;;;;;2.70;0.75;;;24.90;99.90;;;;;;4967401;28;20031;-74
2022/01/05 03:00:03;;;;;;;0.77;0.30;;;25.00;99.90;;;;;;4965351;28;20027;-74
2022/01/05 03:02:30;;;;;;;0.77;0.30;;;25.10;99.90;;;;;;4966933;28;20607;-76
2022/01/05 03:04:57;;;;;;;1.65;0.28;;;25.40;99.90;;;;;;4967544;28;20041;-75
2022/01/05 03:07:25;;;;;;;2.67;0.65;;;25.80;99.90;;;;;;4968202;28;20030;-73
2022/01/05 03:09:53;;;;;;;4.10;0.50;;;26.10;99.90;;;;;;4961739;28;20414;-73
2022/01/05 03:12:20;;;;;;;3.40;0.30;;;26.50;99.90;;;;;;4966342;28;20038;-72
2022/01/05 03:14:47;;;;;;;2.47;0.40;;;26.60;99.90;;;;;;4966246;28;20041;-73
2022/01/05 03:17:15;;;;;;;3.15;0.50;;;26.60;99.90;;;;;;4965533;28;20035;-72
2022/01/05 03:19:42;;;;;;;5.65;0.60;;;26.50;99.90;;;;;;4971888;28;20129;-73
2022/01/05 03:22:09;;;;;;;6.35;1.35;;;26.60;99.90;;;;;;4974068;28;20030;-73
2022/01/05 03:24:37;;;;;;;11.20;2.05;;;26.60;99.90;;;;;;4969696;28;20046;-74
2022/01/05 03:27:04;;;;;;;4.25;0.68;;;26.80;99.90;;;;;;4969756;28;20029;-73
2022/01/05 03:29:32;;;;;;;3.25;0.70;;;26.70;99.90;;;;;;4968764;28;20104;-75
2022/01/05 03:31:59;;;;;;;3.75;0.95;;;26.80;99.90;;;;;;4964674;28;20227;-74
2022/01/05 03:34:27;;;;;;;9.52;1.15;;;26.60;99.90;;;;;;4970516;28;20034;-74
2022/01/05 03:36:56;;;;;;;6.82;1.08;;;26.50;99.90;;;;;;4968916;28;20022;-74
2022/01/05 03:39:24;;;;;;;4.97;0.73;;;26.30;99.90;;;;;;4969490;28;20462;-74
2022/01/05 03:41:51;;;;;;;3.92;1.17;;;26.10;99.90;;;;;;4979216;28;20114;-73
2022/01/05 03:44:18;;;;;;;2.70;0.50;;;25.90;99.90;;;;;;4964519;28;20070;-73
2022/01/05 03:46:46;;;;;;;3.00;0.88;;;25.90;99.90;;;;;;4971865;28;20051;-73
2022/01/05 03:49:13;;;;;;;4.28;0.90;;;26.00;99.90;;;;;;4973580;28;20069;-73
2022/01/05 03:51:41;;;;;;;10.95;1.08;;;26.00;99.90;;;;;;4970513;28;20101;-74
2022/01/05 03:54:08;;;;;;;5.03;0.70;;;26.00;99.90;;;;;;4968066;28;20129;-74
2022/01/05 03:56:35;;;;;;;3.75;1.33;;;26.00;99.90;;;;;;4969119;28;20054;-74
2022/01/05 03:59:02;;;;;;;3.65;1.23;;;25.90;99.90;;;;;;4962474;28;20030;-74
2022/01/05 04:01:30;;;;;;;4.38;0.73;;;25.80;99.90;;;;;;4966659;28;20022;-78
2022/01/05 04:03:57;;;;;;;5.07;0.82;;;25.60;99.90;;;;;;4971111;28;20034;-75
2022/01/05 04:06:25;;;;;;;1.60;0.63;;;25.40;99.90;;;;;;4964357;28;20030;-73
2022/01/05 04:08:52;;;;;;;3.30;0.47;;;25.30;99.90;;;;;;4967688;28;20019;-75
2022/01/05 04:11:19;;;;;;;5.57;1.15;;;25.20;99.90;;;;;;4966908;28;20022;-75
2022/01/05 04:13:47;;;;;;;2.50;0.30;;;25.20;99.90;;;;;;4966919;28;20042;-74
2022/01/05 04:16:14;;;;;;;2.00;0.20;;;25.00;99.90;;;;;;4963598;28;20126;-74
2022/01/05 04:18:41;;;;;;;0.77;0.35;;;24.90;99.90;;;;;;4971270;28;20473;-75
2022/01/05 04:21:09;;;;;;;1.95;0.38;;;24.90;99.90;;;;;;4970965;28;20061;-75
2022/01/05 04:23:36;;;;;;;0.85;0.30;;;24.90;99.90;;;;;;4964691;28;20197;-75
2022/01/05 04:26:03;;;;;;;1.00;0.25;;;24.90;99.90;;;;;;4969563;28;20601;-75
2022/01/05 04:28:31;;;;;;;3.10;0.80;;;24.90;99.90;;;;;;4968486;28;20595;-73
2022/01/05 04:30:58;;;;;;;2.17;0.65;;;24.80;99.90;;;;;;4963351;28;20090;-75
2022/01/05 04:33:25;;;;;;;2.00;0.60;;;24.70;99.90;;;;;;4968489;28;20045;-74
2022/01/05 04:35:53;;;;;;;1.10;0.22;;;24.70;99.90;;;;;;4965999;28;20500;-74
2022/01/05 04:38:20;;;;;;;1.00;0.30;;;24.50;99.90;;;;;;4968038;28;20193;-75
2022/01/05 04:40:47;;;;;;;0.20;0.13;;;24.30;99.90;;;;;;4966325;28;20022;-74
2022/01/05 04:43:15;;;;;;;0.98;0.30;;;24.00;99.90;;;;;;4963639;28;20056;-73
2022/01/05 04:45:43;;;;;;;1.80;0.30;;;23.90;99.90;;;;;;4971077;28;20375;-74
2022/01/05 04:48:10;;;;;;;2.85;1.42;;;23.80;99.90;;;;;;4968541;28;20034;-72
2022/01/05 04:50:37;;;;;;;2.15;0.38;;;23.80;99.90;;;;;;4960367;28;20047;-72
2022/01/05 04:53:05;;;;;;;2.40;0.75;;;23.70;99.90;;;;;;4968151;28;20474;-71
2022/01/05 04:55:32;;;;;;;1.08;0.50;;;23.70;99.90;;;;;;4973200;28;20041;-72
2022/01/05 04:57:59;;;;;;;0.75;0.63;;;23.80;99.90;;;;;;4963437;28;20054;-73
2022/01/05 05:00:27;;;;;;;1.65;0.40;;;23.70;99.90;;;;;;4972664;28;20205;-72
2022/01/05 05:02:54;;;;;;;4.53;0.50;;;23.60;99.90;;;;;;4967507;28;20081;-73
2022/01/05 05:05:21;;;;;;;1.30;0.40;;;23.70;99.90;;;;;;4968704;28;20474;-72
2022/01/05 05:07:49;;;;;;;2.30;0.40;;;23.70;99.90;;;;;;4968070;28;20034;-73
2022/01/05 05:10:16;;;;;;;1.77;0.22;;;23.60;99.90;;;;;;4966890;28;20539;-72
2022/01/05 05:12:43;;;;;;;0.60;0.10;;;23.60;99.90;;;;;;4969602;28;20129;-74
2022/01/05 05:15:11;;;;;;;2.67;0.88;;;23.60;99.90;;;;;;4967042;28;20030;-74
2022/01/05 05:17:38;;;;;;;1.35;0.30;;;23.60;99.90;;;;;;4965062;28;20146;-73
2022/01/05 05:20:06;;;;;;;0.82;0.28;;;23.60;99.90;;;;;;4960140;28;20034;-73
2022/01/05 05:22:35;;;;;;;0.60;0.20;;;23.70;99.90;;;;;;4962743;28;20045;-72
2022/01/05 05:25:04;;;;;;;1.88;0.40;;;23.80;99.90;;;;;;4969903;28;20052;-72
2022/01/05 05:27:31;;;;;;;0.90;0.45;;;23.80;99.90;;;;;;4971154;28;20580;-71
2022/01/05 05:29:58;;;;;;;1.75;0.30;;;23.90;99.90;;;;;;4975125;28;20026;-72
2022/01/05 05:32:26;;;;;;;3.13;0.40;;;24.00;99.90;;;;;;4969101;28;20031;-73
2022/01/05 05:34:53;;;;;;;1.60;0.50;;;24.30;99.90;;;;;;4976279;28;20035;-71
2022/01/05 05:37:22;;;;;;;2.22;0.30;;;24.60;99.90;;;;;;4966983;28;20466;-72
2022/01/05 05:39:49;;;;;;;3.92;0.50;;;25.00;99.90;;;;;;4966927;28;20045;-73
2022/01/05 05:42:16;;;;;;;1.15;0.45;;;25.30;99.90;;;;;;4962879;28;20792;-72
2022/01/05 05:44:44;;;;;;;3.13;0.47;;;25.50;99.90;;;;;;4967136;28;20081;-73
2022/01/05 05:47:11;;;;;;;2.97;0.35;;;25.60;99.90;;;;;;4966880;28;20429;-73
2022/01/05 05:49:38;;;;;;;1.73;0.40;;;25.70;99.90;;;;;;4977095;28;20029;-74
2022/01/05 05:52:06;;;;;;;1.17;0.25;;;25.70;99.90;;;;;;4972144;28;20018;-74
2022/01/05 05:54:33;;;;;;;6.22;0.40;;;25.70;99.90;;;;;;4968195;28;20041;-73
2022/01/05 05:57:01;;;;;;;4.40;0.50;;;25.60;99.90;;;;;;4969610;28;20045;-72
2022/01/05 05:59:28;;;;;;;1.98;0.40;;;25.50;99.90;;;;;;4968228;28;20030;-74
2022/01/05 06:01:55;;;;;;;3.75;1.20;;;25.60;99.90;;;;;;4972847;28;20034;-71
2022/01/05 06:04:23;;;;;;;2.92;0.40;;;25.60;99.90;;;;;;4968928;28;20132;-76
2022/01/05 06:06:50;;;;;;;2.22;0.30;;;25.60;99.90;;;;;;4966122;28;21963;-73
2022/01/05 06:09:17;;;;;;;3.05;0.55;;;25.60;99.90;;;;;;4965625;28;20397;-74
2022/01/05 06:11:45;;;;;;;1.63;0.57;;;25.60;99.90;;;;;;4969411;28;20026;-74
2022/01/05 06:14:12;;;;;;;1.33;0.30;;;25.60;99.90;;;;;;4969621;28;20308;-75
2022/01/05 06:16:39;;;;;;;2.38;0.60;;;25.70;99.90;;;;;;4970258;28;20030;-74
2022/01/05 06:19:07;;;;;;;1.42;0.63;;;25.50;99.90;;;;;;4971723;28;20050;-75
2022/01/05 06:21:34;;;;;;;2.92;0.30;;;25.50;99.90;;;;;;4977644;28;20078;-74
2022/01/05 06:24:02;;;;;;;1.63;0.50;;;25.50;99.90;;;;;;4966702;28;20142;-75
2022/01/05 06:26:30;;;;;;;1.67;0.57;;;25.60;99.90;;;;;;4974404;28;20033;-74
2022/01/05 06:28:57;;;;;;;2.00;0.82;;;25.60;99.90;;;;;;4974647;28;20030;-73
2022/01/05 06:31:24;;;;;;;1.90;1.55;;;25.60;99.90;;;;;;4955503;28;20359;-74
2022/01/05 06:33:52;;;;;;;3.92;0.40;;;25.70;99.90;;;;;;4974083;28;21797;-73
2022/01/05 06:36:19;;;;;;;2.55;0.40;;;25.70;99.90;;;;;;4977826;28;20014;-73
2022/01/05 06:38:46;;;;;;;2.88;0.40;;;25.80;99.90;;;;;;4968744;28;20050;-72
2022/01/05 06:41:14;;;;;;;1.80;0.28;;;25.70;99.90;;;;;;4975122;28;20084;-75
2022/01/05 06:43:41;;;;;;;1.95;0.38;;;25.70;99.90;;;;;;4973884;28;20114;-74
2022/01/05 06:46:09;;;;;;;2.45;0.80;;;25.70;99.90;;;;;;4969493;28;20523;-73
2022/01/05 06:48:36;;;;;;;2.80;0.77;;;25.70;99.90;;;;;;4971181;28;20034;-73
2022/01/05 06:51:03;;;;;;;3.58;0.60;;;25.70;99.90;;;;;;4971474;28;20070;-74
2022/01/05 06:53:31;;;;;;;3.63;0.70;;;25.70;99.90;;;;;;4976105;28;20117;-73
2022/01/05 06:55:58;;;;;;;3.60;0.75;;;25.70;99.90;;;;;;4972426;28;20371;-74
2022/01/05 06:58:25;;;;;;;4.85;0.73;;;25.70;99.90;;;;;;4972592;28;20031;-74
2022/01/05 07:00:53;;;;;;;1.83;0.50;;;25.60;99.90;;;;;;4974342;28;20031;-75
2022/01/05 07:03:20;;;;;;;3.90;0.90;;;25.60;99.90;;;;;;4969434;28;20126;-73
2022/01/05 07:05:47;;;;;;;4.95;0.88;;;25.50;99.90;;;;;;4973939;28;20026;-74
2022/01/05 07:08:15;;;;;;;5.47;1.52;;;25.50;99.90;;;;;;4968970;28;20066;-75
2022/01/05 07:10:43;;;;;;;4.60;1.60;;;25.50;99.90;;;;;;4970476;28;20050;-73
2022/01/05 07:13:10;;;;;;;4.05;1.17;;;25.50;99.90;;;;;;4971444;28;20085;-73
2022/01/05 07:15:37;;;;;;;6.28;1.23;;;25.50;99.90;;;;;;4974531;28;20046;-74
2022/01/05 07:18:05;;;;;;;4.97;1.48;;;25.50;99.90;;;;;;4970543;28;20038;-72
2022/01/05 07:20:32;;;;;;;3.00;0.90;;;25.60;99.90;;;;;;4969507;28;20098;-73
2022/01/05 07:23:00;;;;;;;5.15;0.63;;;25.60;99.90;;;;;;4967370;28;20110;-73
2022/01/05 07:25:27;;;;;;;3.20;0.80;;;25.60;99.90;;;;;;4980174;28;20500;-72
2022/01/05 07:27:54;;;;;;;1.42;0.63;;;25.80;99.90;;;;;;4976881;28;20058;-74
2022/01/05 07:30:21;;;;;;;1.95;0.63;;;25.90;99.90;;;;;;4972524;28;20113;-74
2022/01/05 07:32:49;;;;;;;3.13;0.47;;;26.00;99.90;;;;;;4969430;28;20129;-73
2022/01/05 07:35:16;;;;;;;3.33;1.15;;;26.00;99.90;;;;;;4978158;28;20019;-76
2022/01/05 07:37:44;;;;;;;4.97;0.77;;;26.10;99.90;;;;;;4978432;28;20027;-73
2022/01/05 07:40:12;;;;;;;4.10;0.70;;;26.00;99.90;;;;;;4971065;28;20741;-73
2022/01/05 07:42:39;;;;;;;4.40;0.50;;;25.80;99.90;;;;;;4972143;28;20047;-74
2022/01/05 07:45:09;;;;;;;5.43;0.70;;;25.70;99.90;;;;;;4965287;28;20027;-72
2022/01/05 07:47:37;;;;;;;4.70;0.70;;;25.50;99.90;;;;;;4970029;28;20497;-73
2022/01/05 07:50:09;;;;;;;5.78;1.77;;;25.50;99.90;;;;;;4975071;28;20030;-75
2022/01/05 07:52:38;;;;;;;3.53;1.17;;;25.40;99.90;;;;;;4974165;28;20027;-72
2022/01/05 07:55:07;;;;;;;3.40;0.98;;;25.40;99.90;;;;;;4970050;28;20406;-73
2022/01/05 07:57:35;;;;;;;5.65;1.25;;;25.30;99.90;;;;;;4978609;28;20046;-72
2022/01/05 08:00:06;;;;;;;5.47;1.70;;;25.30;99.90;;;;;;4962514;28;20035;-73
2022/01/05 08:02:34;;;;;;;7.72;2.20;;;25.20;99.90;;;;;;4971353;28;20121;-71
2022/01/05 08:05:02;;;;;;;10.05;1.38;;;25.20;99.90;;;;;;4971013;28;20031;-72
2022/01/05 08:07:30;;;;;;;3.70;1.85;;;25.20;99.90;;;;;;4976846;28;20034;-70
2022/01/05 08:09:57;;;;;;;4.10;1.30;;;25.10;99.90;;;;;;4991076;28;20118;-71
2022/01/05 08:12:24;;;;;;;5.75;1.25;;;25.10;99.90;;;;;;4974774;28;20038;-70
2022/01/05 08:14:51;;;;;;;8.88;1.70;;;25.10;99.90;;;;;;4970950;28;20031;-71
2022/01/05 08:17:19;;;;;;;7.45;1.65;;;25.10;99.90;;;;;;4968330;28;20462;-71
2022/01/05 08:19:46;;;;;;;4.43;0.95;;;25.10;99.90;;;;;;4963823;28;20026;-69
2022/01/05 08:22:14;;;;;;;11.27;2.25;;;25.10;99.90;;;;;;4968712;28;20043;-69
2022/01/05 08:24:41;;;;;;;7.00;1.00;;;25.10;99.90;;;;;;4972571;28;20054;-71
2022/01/05 08:27:08;;;;;;;6.18;1.58;;;25.10;99.90;;;;;;4979625;28;20089;-71
2022/01/05 08:29:36;;;;;;;7.10;1.00;;;25.10;99.90;;;;;;4978918;28;20033;-72
2022/01/05 08:32:04;;;;;;;5.93;1.45;;;25.20;99.90;;;;;;4972154;28;20191;-72
2022/01/05 08:34:32;;;;;;;4.93;0.98;;;25.20;99.90;;;;;;4980517;28;20029;-73
2022/01/05 08:37:00;;;;;;;8.27;1.60;;;25.20;99.90;;;;;;4968424;28;20030;-73
2022/01/05 08:39:27;;;;;;;7.65;1.77;;;25.20;99.90;;;;;;4970085;28;20026;-72
2022/01/05 08:41:55;;;;;;;7.00;1.38;;;25.20;99.90;;;;;;4973760;28;20117;-73
2022/01/05 08:44:22;;;;;;;10.50;2.25;;;25.10;99.90;;;;;;4975523;28;20133;-74
2022/01/05 08:46:49;;;;;;;8.05;2.78;;;25.20;99.90;;;;;;4969581;28;20180;-73
2022/01/05 08:49:17;;;;;;;13.18;2.17;;;25.10;99.90;;;;;;4963460;28;20037;-75
2022/01/05 08:51:44;;;;;;;5.60;1.63;;;25.00;99.90;;;;;;4966492;28;20078;-75
2022/01/05 08:54:11;;;;;;;13.30;2.05;;;25.00;99.90;;;;;;4967762;28;20545;-73
2022/01/05 08:56:39;;;;;;;9.65;1.70;;;25.00;99.90;;;;;;4966774;28;20530;-74
2022/01/05 08:59:06;;;;;;;7.82;1.98;;;25.00;99.90;;;;;;4968872;28;20027;-73
2022/01/05 09:01:34;;;;;;;15.10;2.33;;;25.00;99.90;;;;;;4965512;28;20031;-74
2022/01/05 09:04:01;;;;;;;12.60;1.75;;;25.00;99.90;;;;;;4966872;28;20039;-73
2022/01/05 09:06:28;;;;;;;11.40;2.13;;;25.00;99.90;;;;;;4952947;28;20024;-73
2022/01/05 09:08:56;;;;;;;12.07;1.65;;;24.90;99.90;;;;;;4966984;28;20094;-71
2022/01/05 09:11:23;;;;;;;7.10;2.30;;;24.90;99.90;;;;;;4965081;28;20446;-71
2022/01/05 09:13:50;;;;;;;20.77;2.35;;;24.90;99.90;;;;;;4965938;28;20573;-71
2022/01/05 09:16:18;;;;;;;11.77;2.38;;;24.90;99.90;;;;;;4973886;28;20109;-72
2022/01/05 09:18:46;;;;;;;11.57;2.60;;;24.90;99.90;;;;;;4974486;28;20069;-73
2022/01/05 09:21:13;;;;;;;13.07;2.58;;;24.80;99.90;;;;;;4974695;28;20037;-73
2022/01/05 09:23:42;;;;;;;9.00;1.83;;;24.80;99.90;;;;;;4967674;28;20075;-71
2022/01/05 09:26:09;;;;;;;11.55;2.53;;;24.80;99.90;;;;;;4964764;28;20102;-72
2022/01/05 09:28:43;;;;;;;21.00;2.45;;;24.70;99.90;;;;;;4961363;28;20035;-72
2022/01/05 09:31:12;;;;;;;10.50;1.83;;;24.70;99.90;;;;;;4968464;28;20078;-70
2022/01/05 09:33:40;;;;;;;8.32;2.72;;;24.70;99.90;;;;;;4972253;28;20132;-71
2022/01/05 09:36:21;;;;;;;12.07;2.17;;;24.70;99.90;;;;;;4970666;28;20888;-71
2022/01/05 09:44:09;;;;;;;14.43;2.72;;;24.50;99.90;;;;;;4968943;28;20046;-71
2022/01/05 09:46:45;;;;;;;14.20;2.47;;;24.50;99.90;;;;;;4973139;28;20035;-70
2022/01/05 09:49:44;;;;;;;14.10;3.90;;;24.50;99.90;;;;;;4968310;28;20035;-71
2022/01/05 09:52:12;;;;;;;15.55;4.63;;;24.50;99.90;;;;;;4965412;28;20107;-71
2022/01/05 09:54:43;;;;;;;23.67;5.88;;;24.50;99.90;;;;;;4972675;28;20042;-73
2022/01/05 09:57:14;;;;;;;15.80;3.97;;;24.50;99.90;;;;;;4971099;28;20050;-72
2022/01/05 09:59:42;;;;;;;17.77;5.22;;;24.50;99.90;;;;;;4966271;28;20098;-73
2022/01/05 10:02:09;;;;;;;12.23;2.65;;;24.50;99.90;;;;;;4967118;28;20351;-72
2022/01/05 10:04:37;;;;;;;14.05;2.92;;;24.50;99.90;;;;;;4965918;28;20031;-74
2022/01/05 10:07:05;;;;;;;11.82;2.05;;;24.70;99.90;;;;;;4969463;28;20089;-72
2022/01/05 10:09:32;;;;;;;13.15;2.85;;;24.70;99.90;;;;;;4970253;28;20030;-74
2022/01/05 10:12:03;;;;;;;20.20;3.38;;;24.70;99.90;;;;;;4972902;28;20030;-75
2022/01/05 10:14:31;;;;;;;24.20;3.25;;;24.60;99.90;;;;;;4971374;28;20392;-74
2022/01/05 10:17:24;;;;;;;16.92;2.90;;;24.70;99.90;;;;;;4971845;28;20176;-73
2022/01/05 10:20:00;;;;;;;17.42;2.88;;;24.70;99.90;;;;;;4972650;28;20069;-71
2022/01/05 10:22:36;;;;;;;17.38;3.40;;;24.70;99.90;;;;;;4968607;28;20834;-72
2022/01/05 10:25:22;;;;;;;12.93;2.22;;;24.70;99.90;;;;;;4965270;28;20047;-72
2022/01/05 10:28:03;;;;;;;13.15;2.58;;;24.70;99.90;;;;;;4962694;28;20122;-73
2022/01/05 10:30:38;;;;;;;15.52;1.95;;;24.70;99.90;;;;;;4972818;28;20031;-72
2022/01/05 10:33:06;;;;;;;12.07;2.80;;;24.70;99.90;;;;;;4968428;28;20527;-73
2022/01/05 10:35:34;;;;;;;13.50;2.35;;;24.60;99.90;;;;;;4976463;28;20125;-71
2022/01/05 10:38:08;;;;;;;16.10;2.53;;;24.60;99.90;;;;;;4964075;28;20023;-72
2022/01/05 10:40:38;;;;;;;11.93;2.70;;;24.50;99.90;;;;;;4969749;28;20054;-72
2022/01/05 10:43:11;;;;;;;16.23;2.17;;;24.60;99.90;;;;;;4969125;28;20031;-71
2022/01/05 10:45:53;;;;;;;9.15;3.22;;;24.50;99.90;;;;;;4970255;28;20035;-76
2022/01/05 10:48:25;;;;;;;7.57;1.67;;;24.60;99.90;;;;;;4959986;28;20426;-75
2022/01/05 10:51:07;;;;;;;13.35;3.58;;;24.60;99.90;;;;;;4967020;28;20098;-75
2022/01/05 10:53:34;;;;;;;15.88;2.55;;;24.50;99.90;;;;;;4974326;28;20452;-75
2022/01/05 10:56:02;;;;;;;22.05;4.22;;;24.40;99.90;;;;;;4970766;28;20520;-77
2022/01/05 10:58:43;;;;;;;20.50;2.85;;;24.30;99.90;;;;;;4971629;28;20535;-75
2022/01/05 11:01:28;;;;;;;15.82;3.33;;;24.20;99.90;;;;;;4986069;28;20569;-75
2022/01/05 11:03:55;;;;;;;11.77;2.00;;;24.10;99.90;;;;;;4972107;28;20188;-74
2022/01/05 11:06:23;;;;;;;10.02;2.65;;;24.10;99.90;;;;;;4971527;28;20735;-75
2022/01/05 11:08:54;;;;;;;13.77;1.95;;;24.00;99.90;;;;;;4968021;28;20047;-75
2022/01/05 11:11:38;;;;;;;14.80;3.15;;;24.00;99.90;;;;;;4971435;28;20067;-74
2022/01/05 11:14:09;;;;;;;29.40;6.57;;;24.00;99.90;;;;;;4974760;28;20161;-75
2022/01/05 11:16:37;;;;;;;22.15;4.70;;;23.90;99.90;;;;;;4972024;28;20038;-75
2022/01/05 11:19:22;;;;;;;34.08;9.77;;;23.90;99.90;;;;;;4968384;28;20033;-75
2022/01/05 11:22:06;;;;;;;19.75;4.07;;;23.90;99.90;;;;;;4971597;28;20397;-74
2022/01/05 11:24:44;;;;;;;15.50;3.67;;;23.90;99.90;;;;;;4967811;28;20050;-74
2022/01/05 11:27:15;;;;;;;12.48;2.92;;;23.90;99.90;;;;;;4975869;28;20015;-75
2022/01/05 11:29:43;;;;;;;17.75;3.10;;;23.80;99.90;;;;;;4969617;28;20034;-76
2022/01/05 11:32:14;;;;;;;15.65;3.05;;;23.80;99.90;;;;;;4968683;28;20356;-76
2022/01/05 11:34:42;;;;;;;20.85;4.50;;;23.80;99.90;;;;;;4972001;28;20066;-75
2022/01/05 11:37:10;;;;;;;12.77;3.22;;;23.70;99.90;;;;;;4983173;28;20034;-76
2022/01/05 11:39:44;;;;;;;19.65;4.13;;;23.70;99.90;;;;;;4969958;28;20027;-77
2022/01/05 11:42:15;;;;;;;10.40;2.85;;;23.70;99.90;;;;;;4956902;28;21505;-77
2022/01/05 11:44:54;;;;;;;19.00;2.95;;;23.70;99.90;;;;;;4971211;28;20033;-76
2022/01/05 11:47:23;;;;;;;10.25;1.77;;;23.60;99.90;;;;;;4967338;28;20074;-77
2022/01/05 11:49:52;;;;;;;22.08;3.20;;;23.60;99.90;;;;;;4968465;28;20062;-76
2022/01/05 11:52:39;;;;;;;9.10;1.90;;;23.60;99.90;;;;;;4971096;28;20034;-76
2022/01/05 11:55:07;;;;;;;20.40;4.05;;;23.60;99.90;;;;;;4980795;28;20041;-76
2022/01/05 11:57:35;;;;;;;21.52;3.47;;;23.50;99.90;;;;;;4970800;28;20041;-75
2022/01/05 12:00:28;;;;;;;10.05;2.50;;;23.50;99.90;;;;;;4970862;28;20375;-75
2022/01/05 12:02:56;;;;;;;14.02;2.13;;;23.50;99.90;;;;;;4962461;28;20047;-76
2022/01/05 12:05:23;;;;;;;13.35;3.35;;;23.50;99.90;;;;;;4980436;28;20022;-74
2022/01/05 12:07:53;;;;;;;18.13;2.45;;;23.60;99.90;;;;;;4986098;28;20044;-76
2022/01/05 12:10:23;;;;;;;13.35;2.70;;;23.60;99.90;;;;;;4973116;28;20033;-75
2022/01/05 12:13:02;;;;;;;17.10;2.38;;;23.60;99.90;;;;;;4969728;28;20055;-76
2022/01/05 12:15:43;;;;;;;21.65;2.80;;;23.60;99.90;;;;;;4969922;28;20049;-75
2022/01/05 12:18:19;;;;;;;16.27;3.40;;;23.60;99.90;;;;;;4963986;28;20027;-76
2022/01/05 12:20:47;;;;;;;12.90;2.65;;;23.70;99.90;;;;;;4967718;28;20038;-73
2022/01/05 12:23:30;;;;;;;13.45;2.63;;;23.70;99.90;;;;;;4969854;28;20058;-75
2022/01/05 12:26:07;;;;;;;16.10;2.90;;;23.70;99.90;;;;;;4964909;28;20042;-75
2022/01/05 12:28:37;;;;;;;18.83;3.22;;;23.70;99.90;;;;;;4962465;28;20804;-76
2022/01/05 12:31:06;;;;;;;13.77;2.42;;;23.60;99.90;;;;;;4972365;28;20018;-76
2022/01/05 12:33:54;;;;;;;15.50;2.33;;;23.60;99.90;;;;;;4965565;28;20050;-76
2022/01/05 12:36:35;;;;;;;11.48;2.00;;;23.60;99.90;;;;;;4968263;28;20059;-75
2022/01/05 12:39:05;;;;;;;12.80;2.72;;;23.60;99.90;;;;;;4981893;28;20326;-76
2022/01/05 12:41:34;;;;;;;14.80;3.22;;;23.50;99.90;;;;;;4966681;28;20034;-76
2022/01/05 12:44:32;;;;;;;14.30;2.22;;;23.50;99.90;;;;;;4971656;28;20117;-77
2022/01/05 12:47:00;;;;;;;16.83;3.10;;;23.50;99.90;;;;;;4964554;28;20121;-78
2022/01/05 12:49:32;;;;;;;9.32;2.25;;;23.50;99.90;;;;;;4974986;28;20043;-77
2022/01/05 12:52:01;;;;;;;14.90;2.30;;;23.50;99.90;;;;;;4970253;28;20018;-77
2022/01/05 12:54:31;;;;;;;11.73;2.50;;;23.50;99.90;;;;;;4967183;28;20047;-77
2022/01/05 12:57:04;;;;;;;10.00;2.55;;;23.40;99.90;;;;;;4967383;28;20157;-78
2022/01/05 12:59:35;;;;;;;12.55;2.67;;;23.40;99.90;;;;;;4963324;28;20417;-75